sensor_id;sensor_type;location;lat;lon;timestamp;temperature;humidity
55135;DHT22;41031;44.750;11.308;2023-11-25T00:01:10;5.50;96.30
55135;DHT22;41031;44.750;11.308;2023-11-25T00:03:39;5.50;96.40
55135;DHT22;41031;44.750;11.308;2023-11-25T00:06:07;5.50;96.40
55135;DHT22;41031;44.750;11.308;2023-11-25T00:08:34;5.50;96.40
55135;DHT22;41031;44.750;11.308;2023-11-25T00:11:01;5.40;96.40
55135;DHT22;41031;44.750;11.308;2023-11-25T00:13:33;5.40;96.40
55135;DHT22;41031;44.750;11.308;2023-11-25T00:16:00;5.40;96.40
55135;DHT22;41031;44.750;11.308;2023-11-25T00:18:28;5.30;96.40
55135;DHT22;41031;44.750;11.308;2023-11-25T00:20:55;5.40;96.40
55135;DHT22;41031;44.750;11.308;2023-11-25T00:23:22;5.40;96.50
55135;DHT22;41031;44.750;11.308;2023-11-25T00:25:50;5.40;96.50
55135;DHT22;41031;44.750;11.308;2023-11-25T00:28:21;5.40;96.60
55135;DHT22;41031;44.750;11.308;2023-11-25T00:30:48;5.40;96.60
55135;DHT22;41031;44.750;11.308;2023-11-25T00:33:15;5.40;96.70
55135;DHT22;41031;44.750;11.308;2023-11-25T00:35:42;5.40;96.70
55135;DHT22;41031;44.750;11.308;2023-11-25T00:38:10;5.50;96.80
55135;DHT22;41031;44.750;11.308;2023-11-25T00:40:37;5.50;96.80
55135;DHT22;41031;44.750;11.308;2023-11-25T00:43:04;5.60;96.90
55135;DHT22;41031;44.750;11.308;2023-11-25T00:45:31;5.60;97.00
55135;DHT22;41031;44.750;11.308;2023-11-25T00:47:58;5.70;97.00
55135;DHT22;41031;44.750;11.308;2023-11-25T00:50:26;5.70;97.00
55135;DHT22;41031;44.750;11.308;2023-11-25T00:52:53;5.70;97.10
55135;DHT22;41031;44.750;11.308;2023-11-25T00:55:20;5.70;97.20
55135;DHT22;41031;44.750;11.308;2023-11-25T00:57:47;5.80;97.20
55135;DHT22;41031;44.750;11.308;2023-11-25T01:00:15;5.80;97.20
55135;DHT22;41031;44.750;11.308;2023-11-25T01:02:44;5.80;97.30
55135;DHT22;41031;44.750;11.308;2023-11-25T01:05:11;5.80;97.30
55135;DHT22;41031;44.750;11.308;2023-11-25T01:07:38;5.80;97.20
55135;DHT22;41031;44.750;11.308;2023-11-25T01:10:06;5.80;97.20
55135;DHT22;41031;44.750;11.308;2023-11-25T01:12:33;5.80;97.20
55135;DHT22;41031;44.750;11.308;2023-11-25T01:15:03;5.80;97.20
55135;DHT22;41031;44.750;11.308;2023-11-25T01:17:31;5.80;97.20
55135;DHT22;41031;44.750;11.308;2023-11-25T01:19:59;5.70;97.10
55135;DHT22;41031;44.750;11.308;2023-11-25T01:22:26;5.70;97.20
55135;DHT22;41031;44.750;11.308;2023-11-25T01:24:53;5.60;97.30
55135;DHT22;41031;44.750;11.308;2023-11-25T01:27:20;5.60;97.50
55135;DHT22;41031;44.750;11.308;2023-11-25T01:29:50;5.60;97.60
55135;DHT22;41031;44.750;11.308;2023-11-25T01:32:18;5.60;97.80
55135;DHT22;41031;44.750;11.308;2023-11-25T01:34:47;5.60;97.90
55135;DHT22;41031;44.750;11.308;2023-11-25T01:37:14;5.70;98.00
55135;DHT22;41031;44.750;11.308;2023-11-25T01:39:44;5.70;98.10
55135;DHT22;41031;44.750;11.308;2023-11-25T01:42:12;5.70;98.30
55135;DHT22;41031;44.750;11.308;2023-11-25T01:44:39;5.70;98.30
55135;DHT22;41031;44.750;11.308;2023-11-25T01:47:07;5.80;98.40
55135;DHT22;41031;44.750;11.308;2023-11-25T01:49:35;5.80;98.50
55135;DHT22;41031;44.750;11.308;2023-11-25T01:52:03;5.90;98.50
55135;DHT22;41031;44.750;11.308;2023-11-25T01:54:31;5.90;98.60
55135;DHT22;41031;44.750;11.308;2023-11-25T01:56:59;5.90;98.60
55135;DHT22;41031;44.750;11.308;2023-11-25T01:59:27;6.00;98.70
55135;DHT22;41031;44.750;11.308;2023-11-25T02:01:54;6.00;98.60
55135;DHT22;41031;44.750;11.308;2023-11-25T02:04:23;6.00;98.60
55135;DHT22;41031;44.750;11.308;2023-11-25T02:06:50;6.00;98.60
55135;DHT22;41031;44.750;11.308;2023-11-25T02:09:17;6.00;98.60
55135;DHT22;41031;44.750;11.308;2023-11-25T02:11:58;6.00;98.60
55135;DHT22;41031;44.750;11.308;2023-11-25T02:14:26;6.00;98.90
55135;DHT22;41031;44.750;11.308;2023-11-25T02:16:54;6.00;98.60
55135;DHT22;41031;44.750;11.308;2023-11-25T02:19:23;6.00;98.60
55135;DHT22;41031;44.750;11.308;2023-11-25T02:21:55;6.00;98.70
55135;DHT22;41031;44.750;11.308;2023-11-25T02:24:24;6.00;98.70
55135;DHT22;41031;44.750;11.308;2023-11-25T02:27:00;6.00;98.70
55135;DHT22;41031;44.750;11.308;2023-11-25T02:29:28;6.00;98.70
55135;DHT22;41031;44.750;11.308;2023-11-25T02:31:56;6.00;98.60
55135;DHT22;41031;44.750;11.308;2023-11-25T02:34:26;6.00;98.60
55135;DHT22;41031;44.750;11.308;2023-11-25T02:36:53;6.00;98.60
55135;DHT22;41031;44.750;11.308;2023-11-25T02:39:21;6.00;98.60
55135;DHT22;41031;44.750;11.308;2023-11-25T02:41:50;6.00;98.60
55135;DHT22;41031;44.750;11.308;2023-11-25T02:44:18;6.00;98.60
55135;DHT22;41031;44.750;11.308;2023-11-25T02:46:49;6.00;98.60
55135;DHT22;41031;44.750;11.308;2023-11-25T02:49:16;6.00;98.60
55135;DHT22;41031;44.750;11.308;2023-11-25T02:51:48;6.00;98.50
55135;DHT22;41031;44.750;11.308;2023-11-25T02:54:16;6.00;98.50
55135;DHT22;41031;44.750;11.308;2023-11-25T02:56:43;6.00;98.50
55135;DHT22;41031;44.750;11.308;2023-11-25T02:59:10;5.90;98.50
55135;DHT22;41031;44.750;11.308;2023-11-25T03:01:39;5.90;98.50
55135;DHT22;41031;44.750;11.308;2023-11-25T03:04:19;5.90;98.40
55135;DHT22;41031;44.750;11.308;2023-11-25T03:06:47;5.90;98.40
55135;DHT22;41031;44.750;11.308;2023-11-25T03:09:15;5.90;98.40
55135;DHT22;41031;44.750;11.308;2023-11-25T03:11:42;5.80;98.40
55135;DHT22;41031;44.750;11.308;2023-11-25T03:14:09;5.80;98.40
55135;DHT22;41031;44.750;11.308;2023-11-25T03:16:36;5.80;98.70
55135;DHT22;41031;44.750;11.308;2023-11-25T03:19:03;5.70;98.30
55135;DHT22;41031;44.750;11.308;2023-11-25T03:21:33;5.70;98.40
55135;DHT22;41031;44.750;11.308;2023-11-25T03:24:01;5.70;98.40
55135;DHT22;41031;44.750;11.308;2023-11-25T03:26:30;5.60;98.40
55135;DHT22;41031;44.750;11.308;2023-11-25T03:28:57;5.60;98.30
55135;DHT22;41031;44.750;11.308;2023-11-25T03:31:25;5.60;98.40
55135;DHT22;41031;44.750;11.308;2023-11-25T03:33:54;5.50;98.40
55135;DHT22;41031;44.750;11.308;2023-11-25T03:36:21;5.50;98.40
55135;DHT22;41031;44.750;11.308;2023-11-25T03:38:49;5.40;98.40
55135;DHT22;41031;44.750;11.308;2023-11-25T03:41:17;5.40;98.40
55135;DHT22;41031;44.750;11.308;2023-11-25T03:43:45;5.40;98.40
55135;DHT22;41031;44.750;11.308;2023-11-25T03:46:12;5.40;98.40
55135;DHT22;41031;44.750;11.308;2023-11-25T03:48:40;5.30;98.40
55135;DHT22;41031;44.750;11.308;2023-11-25T03:51:09;5.30;98.40
55135;DHT22;41031;44.750;11.308;2023-11-25T03:53:37;5.30;98.50
55135;DHT22;41031;44.750;11.308;2023-11-25T03:56:05;5.30;98.40
55135;DHT22;41031;44.750;11.308;2023-11-25T03:58:34;5.20;98.30
55135;DHT22;41031;44.750;11.308;2023-11-25T04:01:01;5.20;98.40
55135;DHT22;41031;44.750;11.308;2023-11-25T04:03:28;5.10;98.40
55135;DHT22;41031;44.750;11.308;2023-11-25T04:05:55;5.10;98.30
55135;DHT22;41031;44.750;11.308;2023-11-25T04:08:24;5.00;98.30
55135;DHT22;41031;44.750;11.308;2023-11-25T04:10:51;5.00;98.40
55135;DHT22;41031;44.750;11.308;2023-11-25T04:13:18;5.00;98.40
55135;DHT22;41031;44.750;11.308;2023-11-25T04:15:45;5.00;98.70
55135;DHT22;41031;44.750;11.308;2023-11-25T04:18:13;4.90;98.40
55135;DHT22;41031;44.750;11.308;2023-11-25T04:20:40;4.90;98.40
55135;DHT22;41031;44.750;11.308;2023-11-25T04:23:07;4.90;98.30
55135;DHT22;41031;44.750;11.308;2023-11-25T04:25:35;4.80;98.20
55135;DHT22;41031;44.750;11.308;2023-11-25T04:28:03;4.80;98.20
55135;DHT22;41031;44.750;11.308;2023-11-25T04:30:31;4.80;98.30
55135;DHT22;41031;44.750;11.308;2023-11-25T04:32:59;4.70;98.30
55135;DHT22;41031;44.750;11.308;2023-11-25T04:35:26;4.70;98.40
55135;DHT22;41031;44.750;11.308;2023-11-25T04:37:53;4.70;98.50
55135;DHT22;41031;44.750;11.308;2023-11-25T04:40:20;4.80;98.60
55135;DHT22;41031;44.750;11.308;2023-11-25T04:42:47;4.70;98.50
55135;DHT22;41031;44.750;11.308;2023-11-25T04:45:15;4.70;98.40
55135;DHT22;41031;44.750;11.308;2023-11-25T04:47:49;4.70;98.40
55135;DHT22;41031;44.750;11.308;2023-11-25T04:50:20;4.60;98.40
55135;DHT22;41031;44.750;11.308;2023-11-25T04:52:47;4.60;98.40
55135;DHT22;41031;44.750;11.308;2023-11-25T04:55:14;4.60;98.50
55135;DHT22;41031;44.750;11.308;2023-11-25T04:57:42;4.60;98.60
55135;DHT22;41031;44.750;11.308;2023-11-25T05:00:12;4.60;98.60
55135;DHT22;41031;44.750;11.308;2023-11-25T05:02:41;4.60;98.60
55135;DHT22;41031;44.750;11.308;2023-11-25T05:05:09;4.60;98.60
55135;DHT22;41031;44.750;11.308;2023-11-25T05:07:36;4.60;98.60
55135;DHT22;41031;44.750;11.308;2023-11-25T05:10:04;4.60;98.70
55135;DHT22;41031;44.750;11.308;2023-11-25T05:12:37;4.60;98.70
55135;DHT22;41031;44.750;11.308;2023-11-25T05:15:05;4.60;98.70
55135;DHT22;41031;44.750;11.308;2023-11-25T05:17:33;4.60;98.60
55135;DHT22;41031;44.750;11.308;2023-11-25T05:20:00;4.60;98.50
55135;DHT22;41031;44.750;11.308;2023-11-25T05:22:27;4.50;98.30
55135;DHT22;41031;44.750;11.308;2023-11-25T05:24:55;4.50;98.20
55135;DHT22;41031;44.750;11.308;2023-11-25T05:27:22;4.50;98.10
55135;DHT22;41031;44.750;11.308;2023-11-25T05:29:49;4.50;98.10
55135;DHT22;41031;44.750;11.308;2023-11-25T05:32:16;4.50;98.10
55135;DHT22;41031;44.750;11.308;2023-11-25T05:34:44;4.50;98.10
55135;DHT22;41031;44.750;11.308;2023-11-25T05:37:11;4.50;98.10
55135;DHT22;41031;44.750;11.308;2023-11-25T05:39:40;4.50;98.10
55135;DHT22;41031;44.750;11.308;2023-11-25T05:42:12;4.50;98.10
55135;DHT22;41031;44.750;11.308;2023-11-25T05:44:43;4.40;98.00
55135;DHT22;41031;44.750;11.308;2023-11-25T05:47:10;4.40;97.90
55135;DHT22;41031;44.750;11.308;2023-11-25T05:49:40;4.40;97.70
55135;DHT22;41031;44.750;11.308;2023-11-25T05:52:07;4.40;97.70
55135;DHT22;41031;44.750;11.308;2023-11-25T05:54:34;4.40;97.70
55135;DHT22;41031;44.750;11.308;2023-11-25T05:57:01;4.40;97.70
55135;DHT22;41031;44.750;11.308;2023-11-25T05:59:28;4.40;97.60
55135;DHT22;41031;44.750;11.308;2023-11-25T06:01:55;4.40;97.50
55135;DHT22;41031;44.750;11.308;2023-11-25T06:04:22;4.40;97.30
55135;DHT22;41031;44.750;11.308;2023-11-25T06:06:49;4.40;97.30
55135;DHT22;41031;44.750;11.308;2023-11-25T06:09:40;4.40;97.20
55135;DHT22;41031;44.750;11.308;2023-11-25T06:12:07;4.40;97.10
55135;DHT22;41031;44.750;11.308;2023-11-25T06:14:36;4.30;97.00
55135;DHT22;41031;44.750;11.308;2023-11-25T06:17:04;4.30;97.00
55135;DHT22;41031;44.750;11.308;2023-11-25T06:19:34;4.30;97.10
55135;DHT22;41031;44.750;11.308;2023-11-25T06:22:01;4.30;97.10
55135;DHT22;41031;44.750;11.308;2023-11-25T06:24:31;4.20;97.10
55135;DHT22;41031;44.750;11.308;2023-11-25T06:26:58;4.20;97.10
55135;DHT22;41031;44.750;11.308;2023-11-25T06:29:25;4.20;97.00
55135;DHT22;41031;44.750;11.308;2023-11-25T06:31:52;4.20;97.00
55135;DHT22;41031;44.750;11.308;2023-11-25T06:34:19;4.20;97.00
55135;DHT22;41031;44.750;11.308;2023-11-25T06:36:46;4.30;96.90
55135;DHT22;41031;44.750;11.308;2023-11-25T06:39:13;4.40;96.30
55135;DHT22;41031;44.750;11.308;2023-11-25T06:41:46;4.50;95.70
55135;DHT22;41031;44.750;11.308;2023-11-25T06:44:16;4.60;95.40
55135;DHT22;41031;44.750;11.308;2023-11-25T06:46:44;4.70;95.00
55135;DHT22;41031;44.750;11.308;2023-11-25T06:49:11;4.70;94.60
55135;DHT22;41031;44.750;11.308;2023-11-25T06:51:41;4.70;94.30
55135;DHT22;41031;44.750;11.308;2023-11-25T06:54:09;4.80;93.90
55135;DHT22;41031;44.750;11.308;2023-11-25T06:56:36;4.80;93.70
55135;DHT22;41031;44.750;11.308;2023-11-25T06:59:05;5.00;93.20
55135;DHT22;41031;44.750;11.308;2023-11-25T07:01:34;5.10;92.90
55135;DHT22;41031;44.750;11.308;2023-11-25T07:04:02;5.10;92.60
55135;DHT22;41031;44.750;11.308;2023-11-25T07:06:32;5.10;92.50
55135;DHT22;41031;44.750;11.308;2023-11-25T07:08:59;5.10;92.40
55135;DHT22;41031;44.750;11.308;2023-11-25T07:11:27;5.10;92.40
55135;DHT22;41031;44.750;11.308;2023-11-25T07:13:57;5.10;92.30
55135;DHT22;41031;44.750;11.308;2023-11-25T07:16:24;5.10;92.30
55135;DHT22;41031;44.750;11.308;2023-11-25T07:18:51;5.10;92.20
55135;DHT22;41031;44.750;11.308;2023-11-25T07:21:19;5.10;92.10
55135;DHT22;41031;44.750;11.308;2023-11-25T07:23:46;5.20;92.00
55135;DHT22;41031;44.750;11.308;2023-11-25T07:26:14;5.30;91.80
55135;DHT22;41031;44.750;11.308;2023-11-25T07:28:44;5.30;91.70
55135;DHT22;41031;44.750;11.308;2023-11-25T07:31:11;5.40;91.50
55135;DHT22;41031;44.750;11.308;2023-11-25T07:33:38;5.50;91.10
55135;DHT22;41031;44.750;11.308;2023-11-25T07:36:06;5.50;90.80
55135;DHT22;41031;44.750;11.308;2023-11-25T07:38:33;5.60;90.80
55135;DHT22;41031;44.750;11.308;2023-11-25T07:41:00;5.60;90.90
55135;DHT22;41031;44.750;11.308;2023-11-25T07:43:27;5.60;90.60
55135;DHT22;41031;44.750;11.308;2023-11-25T07:45:55;5.70;90.40
55135;DHT22;41031;44.750;11.308;2023-11-25T07:48:23;5.80;90.20
55135;DHT22;41031;44.750;11.308;2023-11-25T07:50:50;5.80;90.30
55135;DHT22;41031;44.750;11.308;2023-11-25T07:53:17;5.90;90.10
55135;DHT22;41031;44.750;11.308;2023-11-25T07:55:44;6.00;89.80
55135;DHT22;41031;44.750;11.308;2023-11-25T07:58:11;6.00;89.10
55135;DHT22;41031;44.750;11.308;2023-11-25T08:00:38;6.10;87.90
55135;DHT22;41031;44.750;11.308;2023-11-25T08:03:05;6.20;87.50
55135;DHT22;41031;44.750;11.308;2023-11-25T08:05:33;6.30;86.80
55135;DHT22;41031;44.750;11.308;2023-11-25T08:08:01;6.40;86.90
55135;DHT22;41031;44.750;11.308;2023-11-25T08:10:30;6.50;86.60
55135;DHT22;41031;44.750;11.308;2023-11-25T08:13:02;6.60;86.90
55135;DHT22;41031;44.750;11.308;2023-11-25T08:15:30;6.80;86.80
55135;DHT22;41031;44.750;11.308;2023-11-25T08:17:57;6.90;86.40
55135;DHT22;41031;44.750;11.308;2023-11-25T08:20:26;7.00;85.80
55135;DHT22;41031;44.750;11.308;2023-11-25T08:22:53;7.10;84.90
55135;DHT22;41031;44.750;11.308;2023-11-25T08:25:20;7.30;83.60
55135;DHT22;41031;44.750;11.308;2023-11-25T08:27:49;7.40;82.30
55135;DHT22;41031;44.750;11.308;2023-11-25T08:30:16;7.50;80.80
55135;DHT22;41031;44.750;11.308;2023-11-25T08:32:44;7.70;80.10
55135;DHT22;41031;44.750;11.308;2023-11-25T08:35:11;7.80;80.30
55135;DHT22;41031;44.750;11.308;2023-11-25T08:37:39;7.90;80.50
55135;DHT22;41031;44.750;11.308;2023-11-25T08:40:10;8.00;80.80
55135;DHT22;41031;44.750;11.308;2023-11-25T08:42:44;8.10;80.50
55135;DHT22;41031;44.750;11.308;2023-11-25T08:45:12;8.20;80.20
55135;DHT22;41031;44.750;11.308;2023-11-25T08:47:39;8.30;80.30
55135;DHT22;41031;44.750;11.308;2023-11-25T08:50:12;8.40;80.10
55135;DHT22;41031;44.750;11.308;2023-11-25T08:52:43;8.50;80.40
55135;DHT22;41031;44.750;11.308;2023-11-25T08:55:13;8.60;80.30
55135;DHT22;41031;44.750;11.308;2023-11-25T08:57:45;8.70;78.50
55135;DHT22;41031;44.750;11.308;2023-11-25T09:00:12;8.80;77.00
55135;DHT22;41031;44.750;11.308;2023-11-25T09:02:49;8.90;76.40
55135;DHT22;41031;44.750;11.308;2023-11-25T09:05:20;9.00;76.00
55135;DHT22;41031;44.750;11.308;2023-11-25T09:07:52;9.10;67.60
55135;DHT22;41031;44.750;11.308;2023-11-25T09:10:22;9.30;62.50
55135;DHT22;41031;44.750;11.308;2023-11-25T09:12:50;9.50;58.50
55135;DHT22;41031;44.750;11.308;2023-11-25T09:15:20;9.70;56.10
55135;DHT22;41031;44.750;11.308;2023-11-25T09:17:48;9.90;56.00
55135;DHT22;41031;44.750;11.308;2023-11-25T09:20:16;10.00;54.10
55135;DHT22;41031;44.750;11.308;2023-11-25T09:22:44;10.20;52.00
55135;DHT22;41031;44.750;11.308;2023-11-25T09:25:12;10.40;51.60
55135;DHT22;41031;44.750;11.308;2023-11-25T09:27:39;10.50;50.90
55135;DHT22;41031;44.750;11.308;2023-11-25T09:30:08;10.60;50.60
55135;DHT22;41031;44.750;11.308;2023-11-25T09:32:40;10.70;50.60
55135;DHT22;41031;44.750;11.308;2023-11-25T09:35:08;10.80;52.20
55135;DHT22;41031;44.750;11.308;2023-11-25T09:37:38;10.80;52.40
55135;DHT22;41031;44.750;11.308;2023-11-25T09:40:06;10.90;52.70
55135;DHT22;41031;44.750;11.308;2023-11-25T09:42:34;11.00;50.20
55135;DHT22;41031;44.750;11.308;2023-11-25T09:45:01;11.00;49.70
55135;DHT22;41031;44.750;11.308;2023-11-25T09:47:28;11.10;48.50
55135;DHT22;41031;44.750;11.308;2023-11-25T09:49:55;11.10;49.10
55135;DHT22;41031;44.750;11.308;2023-11-25T09:52:24;11.20;47.20
55135;DHT22;41031;44.750;11.308;2023-11-25T09:54:55;11.30;48.30
55135;DHT22;41031;44.750;11.308;2023-11-25T09:57:25;11.30;49.10
55135;DHT22;41031;44.750;11.308;2023-11-25T10:00:00;11.40;47.80
55135;DHT22;41031;44.750;11.308;2023-11-25T10:02:35;11.40;50.10
55135;DHT22;41031;44.750;11.308;2023-11-25T10:05:03;11.50;50.00
55135;DHT22;41031;44.750;11.308;2023-11-25T10:07:31;11.60;48.80
55135;DHT22;41031;44.750;11.308;2023-11-25T10:09:58;11.60;46.80
55135;DHT22;41031;44.750;11.308;2023-11-25T10:12:26;11.60;47.90
55135;DHT22;41031;44.750;11.308;2023-11-25T10:14:53;11.70;46.50
55135;DHT22;41031;44.750;11.308;2023-11-25T10:17:20;11.70;46.40
55135;DHT22;41031;44.750;11.308;2023-11-25T10:20:04;11.70;47.70
55135;DHT22;41031;44.750;11.308;2023-11-25T10:22:48;11.80;46.70
55135;DHT22;41031;44.750;11.308;2023-11-25T10:25:18;11.80;49.10
55135;DHT22;41031;44.750;11.308;2023-11-25T10:27:49;11.80;49.00
55135;DHT22;41031;44.750;11.308;2023-11-25T10:30:18;11.90;47.40
55135;DHT22;41031;44.750;11.308;2023-11-25T10:32:49;12.00;49.00
55135;DHT22;41031;44.750;11.308;2023-11-25T10:35:16;12.00;48.00
55135;DHT22;41031;44.750;11.308;2023-11-25T10:37:45;12.10;46.80
55135;DHT22;41031;44.750;11.308;2023-11-25T10:40:13;12.10;46.10
55135;DHT22;41031;44.750;11.308;2023-11-25T10:42:44;12.20;46.00
55135;DHT22;41031;44.750;11.308;2023-11-25T10:45:15;12.20;45.60
55135;DHT22;41031;44.750;11.308;2023-11-25T10:47:43;12.20;45.10
55135;DHT22;41031;44.750;11.308;2023-11-25T10:50:11;12.20;43.60
55135;DHT22;41031;44.750;11.308;2023-11-25T10:52:43;12.30;44.40
55135;DHT22;41031;44.750;11.308;2023-11-25T10:55:10;12.30;42.40
55135;DHT22;41031;44.750;11.308;2023-11-25T10:57:37;12.30;41.30
55135;DHT22;41031;44.750;11.308;2023-11-25T11:00:05;12.40;40.10
55135;DHT22;41031;44.750;11.308;2023-11-25T11:02:51;12.40;39.40
55135;DHT22;41031;44.750;11.308;2023-11-25T11:08:19;12.40;38.80
55135;DHT22;41031;44.750;11.308;2023-11-25T11:10:58;12.40;38.50
55135;DHT22;41031;44.750;11.308;2023-11-25T11:13:36;12.40;38.30
55135;DHT22;41031;44.750;11.308;2023-11-25T11:16:22;12.50;38.30
55135;DHT22;41031;44.750;11.308;2023-11-25T11:18:52;12.50;39.30
55135;DHT22;41031;44.750;11.308;2023-11-25T11:21:24;12.50;39.30
55135;DHT22;41031;44.750;11.308;2023-11-25T11:23:55;12.60;36.80
55135;DHT22;41031;44.750;11.308;2023-11-25T11:26:32;12.70;37.90
55135;DHT22;41031;44.750;11.308;2023-11-25T11:31:56;12.80;39.90
55135;DHT22;41031;44.750;11.308;2023-11-25T11:34:27;12.80;38.30
55135;DHT22;41031;44.750;11.308;2023-11-25T11:36:55;12.80;36.90
55135;DHT22;41031;44.750;11.308;2023-11-25T11:39:32;12.90;37.90
55135;DHT22;41031;44.750;11.308;2023-11-25T11:44:56;12.90;36.20
55135;DHT22;41031;44.750;11.308;2023-11-25T11:47:24;12.90;37.10
55135;DHT22;41031;44.750;11.308;2023-11-25T11:49:52;12.90;36.60
55135;DHT22;41031;44.750;11.308;2023-11-25T11:52:19;12.90;36.50
55135;DHT22;41031;44.750;11.308;2023-11-25T11:54:46;12.90;36.00
55135;DHT22;41031;44.750;11.308;2023-11-25T11:57:13;12.90;36.20
55135;DHT22;41031;44.750;11.308;2023-11-25T11:59:59;12.90;35.80
55135;DHT22;41031;44.750;11.308;2023-11-25T12:02:31;12.90;35.50
55135;DHT22;41031;44.750;11.308;2023-11-25T12:04:59;12.90;35.80
55135;DHT22;41031;44.750;11.308;2023-11-25T12:07:27;12.90;36.50
55135;DHT22;41031;44.750;11.308;2023-11-25T12:09:55;12.90;35.20
55135;DHT22;41031;44.750;11.308;2023-11-25T12:12:23;12.90;35.10
55135;DHT22;41031;44.750;11.308;2023-11-25T12:14:50;12.90;33.60
55135;DHT22;41031;44.750;11.308;2023-11-25T12:17:21;12.80;35.30
55135;DHT22;41031;44.750;11.308;2023-11-25T12:19:52;12.80;36.60
55135;DHT22;41031;44.750;11.308;2023-11-25T12:22:19;12.80;34.90
55135;DHT22;41031;44.750;11.308;2023-11-25T12:24:46;12.80;32.90
55135;DHT22;41031;44.750;11.308;2023-11-25T12:27:14;12.80;34.50
55135;DHT22;41031;44.750;11.308;2023-11-25T12:29:44;12.80;35.20
55135;DHT22;41031;44.750;11.308;2023-11-25T12:32:11;12.80;36.30
55135;DHT22;41031;44.750;11.308;2023-11-25T12:34:38;12.80;35.70
55135;DHT22;41031;44.750;11.308;2023-11-25T12:37:05;12.80;34.90
55135;DHT22;41031;44.750;11.308;2023-11-25T12:39:32;12.80;34.60
55135;DHT22;41031;44.750;11.308;2023-11-25T12:42:04;12.80;35.40
55135;DHT22;41031;44.750;11.308;2023-11-25T12:44:48;12.80;35.20
55135;DHT22;41031;44.750;11.308;2023-11-25T12:47:15;12.80;35.10
55135;DHT22;41031;44.750;11.308;2023-11-25T12:49:42;12.80;35.00
55135;DHT22;41031;44.750;11.308;2023-11-25T12:52:18;12.80;34.60
55135;DHT22;41031;44.750;11.308;2023-11-25T12:54:46;12.80;33.10
55135;DHT22;41031;44.750;11.308;2023-11-25T12:57:13;12.70;34.90
55135;DHT22;41031;44.750;11.308;2023-11-25T12:59:40;12.70;34.60
55135;DHT22;41031;44.750;11.308;2023-11-25T13:02:10;12.80;33.90
55135;DHT22;41031;44.750;11.308;2023-11-25T13:04:45;12.80;34.70
55135;DHT22;41031;44.750;11.308;2023-11-25T13:07:32;12.80;35.80
55135;DHT22;41031;44.750;11.308;2023-11-25T13:10:00;12.80;34.50
55135;DHT22;41031;44.750;11.308;2023-11-25T13:12:28;12.80;35.00
55135;DHT22;41031;44.750;11.308;2023-11-25T13:14:56;12.80;36.20
55135;DHT22;41031;44.750;11.308;2023-11-25T13:17:24;12.80;36.30
55135;DHT22;41031;44.750;11.308;2023-11-25T13:19:51;12.80;36.60
55135;DHT22;41031;44.750;11.308;2023-11-25T13:22:18;12.70;35.80
55135;DHT22;41031;44.750;11.308;2023-11-25T13:24:46;12.70;36.70
55135;DHT22;41031;44.750;11.308;2023-11-25T13:27:13;12.70;37.10
55135;DHT22;41031;44.750;11.308;2023-11-25T13:29:41;12.70;37.80
55135;DHT22;41031;44.750;11.308;2023-11-25T13:32:11;12.70;38.90
55135;DHT22;41031;44.750;11.308;2023-11-25T13:34:41;12.60;37.10
55135;DHT22;41031;44.750;11.308;2023-11-25T13:37:08;12.60;38.90
55135;DHT22;41031;44.750;11.308;2023-11-25T13:39:35;12.60;38.00
55135;DHT22;41031;44.750;11.308;2023-11-25T13:42:03;12.60;39.30
55135;DHT22;41031;44.750;11.308;2023-11-25T13:44:32;12.50;37.40
55135;DHT22;41031;44.750;11.308;2023-11-25T13:46:59;12.50;37.80
55135;DHT22;41031;44.750;11.308;2023-11-25T13:49:26;12.50;36.20
55135;DHT22;41031;44.750;11.308;2023-11-25T13:51:56;12.40;34.00
55135;DHT22;41031;44.750;11.308;2023-11-25T13:54:24;12.40;35.00
55135;DHT22;41031;44.750;11.308;2023-11-25T13:56:53;12.40;35.80
55135;DHT22;41031;44.750;11.308;2023-11-25T13:59:23;12.40;35.70
55135;DHT22;41031;44.750;11.308;2023-11-25T14:01:50;12.40;37.00
55135;DHT22;41031;44.750;11.308;2023-11-25T14:04:17;12.30;36.50
55135;DHT22;41031;44.750;11.308;2023-11-25T14:06:50;12.30;37.00
55135;DHT22;41031;44.750;11.308;2023-11-25T14:09:17;12.30;36.50
55135;DHT22;41031;44.750;11.308;2023-11-25T14:11:45;12.30;37.90
55135;DHT22;41031;44.750;11.308;2023-11-25T14:14:12;12.20;38.90
55135;DHT22;41031;44.750;11.308;2023-11-25T14:16:39;12.20;39.20
55135;DHT22;41031;44.750;11.308;2023-11-25T14:19:11;12.10;38.90
55135;DHT22;41031;44.750;11.308;2023-11-25T14:21:39;12.10;39.30
55135;DHT22;41031;44.750;11.308;2023-11-25T14:24:06;12.00;39.60
55135;DHT22;41031;44.750;11.308;2023-11-25T14:26:33;12.00;39.30
55135;DHT22;41031;44.750;11.308;2023-11-25T14:29:02;12.00;40.60
55135;DHT22;41031;44.750;11.308;2023-11-25T14:31:29;11.90;40.60
55135;DHT22;41031;44.750;11.308;2023-11-25T14:34:00;11.90;40.20
55135;DHT22;41031;44.750;11.308;2023-11-25T14:36:27;11.90;41.10
55135;DHT22;41031;44.750;11.308;2023-11-25T14:38:54;11.90;41.00
55135;DHT22;41031;44.750;11.308;2023-11-25T14:41:23;11.80;41.40
55135;DHT22;41031;44.750;11.308;2023-11-25T14:43:51;11.80;42.00
55135;DHT22;41031;44.750;11.308;2023-11-25T14:46:18;11.70;40.90
55135;DHT22;41031;44.750;11.308;2023-11-25T14:48:45;11.70;41.30
55135;DHT22;41031;44.750;11.308;2023-11-25T14:51:12;11.70;41.90
55135;DHT22;41031;44.750;11.308;2023-11-25T14:53:39;11.60;41.90
55135;DHT22;41031;44.750;11.308;2023-11-25T14:56:06;11.60;41.50
55135;DHT22;41031;44.750;11.308;2023-11-25T14:58:33;11.50;41.80
55135;DHT22;41031;44.750;11.308;2023-11-25T15:01:00;11.40;41.70
55135;DHT22;41031;44.750;11.308;2023-11-25T15:03:28;11.40;42.40
55135;DHT22;41031;44.750;11.308;2023-11-25T15:05:55;11.30;43.10
55135;DHT22;41031;44.750;11.308;2023-11-25T15:08:22;11.20;43.60
55135;DHT22;41031;44.750;11.308;2023-11-25T15:10:50;11.20;44.20
55135;DHT22;41031;44.750;11.308;2023-11-25T15:13:17;11.10;44.70
55135;DHT22;41031;44.750;11.308;2023-11-25T15:15:44;11.00;44.70
55135;DHT22;41031;44.750;11.308;2023-11-25T15:18:11;10.90;44.70
55135;DHT22;41031;44.750;11.308;2023-11-25T15:20:38;10.80;45.30
55135;DHT22;41031;44.750;11.308;2023-11-25T15:23:05;10.70;46.40
55135;DHT22;41031;44.750;11.308;2023-11-25T15:25:32;10.60;47.30
55135;DHT22;41031;44.750;11.308;2023-11-25T15:27:59;10.50;47.90
55135;DHT22;41031;44.750;11.308;2023-11-25T15:30:28;10.40;48.10
55135;DHT22;41031;44.750;11.308;2023-11-25T15:32:55;10.30;48.20
55135;DHT22;41031;44.750;11.308;2023-11-25T15:35:23;10.30;48.20
55135;DHT22;41031;44.750;11.308;2023-11-25T15:37:50;10.20;48.40
55135;DHT22;41031;44.750;11.308;2023-11-25T15:40:18;10.10;48.80
55135;DHT22;41031;44.750;11.308;2023-11-25T15:42:45;10.00;49.00